createdAt,value
2019-04-30T00:01:37.437Z,11.80
2019-04-30T00:04:10.639Z,11.80
2019-04-30T00:06:39.678Z,11.90
2019-04-30T00:09:09.702Z,11.80
2019-04-30T00:11:39.215Z,11.80
2019-04-30T00:14:08.430Z,11.80
2019-04-30T00:16:39.953Z,11.80
2019-04-30T00:19:10.672Z,11.80
2019-04-30T00:21:38.420Z,11.80
2019-04-30T00:24:10.294Z,11.80
2019-04-30T00:26:39.921Z,11.80
2019-04-30T00:29:08.940Z,11.80
2019-04-30T00:31:37.717Z,11.80
2019-04-30T00:34:06.525Z,11.80
2019-04-30T00:36:37.430Z,11.80
2019-04-30T00:39:12.933Z,11.80
2019-04-30T00:41:39.855Z,11.70
2019-04-30T00:44:07.910Z,11.70
2019-04-30T00:46:36.791Z,11.80
2019-04-30T00:49:11.298Z,11.80
2019-04-30T00:51:36.184Z,11.80
2019-04-30T00:54:05.749Z,11.80
2019-04-30T00:56:35.517Z,11.80
2019-04-30T00:59:07.052Z,11.80
2019-04-30T01:02:03.181Z,11.70
2019-04-30T01:04:41.252Z,11.70
2019-04-30T01:07:10.894Z,11.70
2019-04-30T01:09:46.438Z,11.60
2019-04-30T01:12:10.585Z,11.70
2019-04-30T01:14:39.457Z,11.70
2019-04-30T01:17:12.178Z,11.70
2019-04-30T01:19:39.634Z,11.60
2019-04-30T01:22:09.040Z,11.60
2019-04-30T01:24:38.770Z,11.60
2019-04-30T01:27:10.460Z,11.60
2019-04-30T01:29:44.058Z,11.60
2019-04-30T01:32:10.468Z,11.60
2019-04-30T01:34:44.084Z,11.70
2019-04-30T01:37:10.404Z,11.60
2019-04-30T01:39:39.250Z,11.60
2019-04-30T01:42:11.421Z,11.50
2019-04-30T01:44:39.222Z,11.50
2019-04-30T01:47:08.937Z,11.50
2019-04-30T01:49:42.903Z,11.60
2019-04-30T01:52:09.560Z,11.60
2019-04-30T01:54:39.119Z,11.50
2019-04-30T01:57:19.305Z,11.50
2019-04-30T02:00:25.737Z,11.50
2019-04-30T02:02:54.829Z,11.50
2019-04-30T02:05:23.708Z,11.50
2019-04-30T02:07:52.516Z,11.50
2019-04-30T02:10:21.502Z,11.50
2019-04-30T02:12:50.377Z,11.60
2019-04-30T02:15:19.381Z,11.50
2019-04-30T02:17:50.270Z,11.40
2019-04-30T02:20:18.916Z,11.40
2019-04-30T02:22:48.625Z,11.40
2019-04-30T02:25:19.404Z,11.40
2019-04-30T02:27:48.928Z,11.40
2019-04-30T02:30:20.928Z,11.30
2019-04-30T02:32:52.064Z,11.40
2019-04-30T02:35:56.341Z,11.40
2019-04-30T02:38:35.764Z,11.40
2019-04-30T02:41:05.207Z,11.40
2019-04-30T02:43:34.952Z,11.30
2019-04-30T02:46:05.454Z,11.30
2019-04-30T02:48:39.677Z,11.30
2019-04-30T02:51:10.526Z,11.40
2019-04-30T02:54:16.412Z,11.40
2019-04-30T02:56:50.705Z,11.40
2019-04-30T02:59:20.260Z,11.20
2019-04-30T03:01:50.120Z,11.20
2019-04-30T03:04:19.781Z,11.30
2019-04-30T03:06:50.271Z,11.20
2019-04-30T03:09:20.209Z,11.20
2019-04-30T03:11:50.134Z,11.10
2019-04-30T03:14:20.140Z,11.00
2019-04-30T03:17:00.252Z,11.00
2019-04-30T03:19:51.057Z,11.00
2019-04-30T03:22:22.234Z,11.00
2019-04-30T03:24:51.001Z,10.90
2019-04-30T03:27:20.687Z,10.90
2019-04-30T03:29:50.553Z,11.00
2019-04-30T03:32:35.773Z,11.10
2019-04-30T03:34:57.274Z,11.00
2019-04-30T03:37:26.224Z,11.00
2019-04-30T03:39:55.304Z,11.00
2019-04-30T03:42:24.196Z,11.00
2019-04-30T03:44:52.987Z,10.90
2019-04-30T03:47:21.808Z,10.90
2019-04-30T03:49:51.267Z,10.80
2019-04-30T03:52:20.125Z,10.80
2019-04-30T03:54:49.555Z,10.90
2019-04-30T03:57:20.403Z,11.00
2019-04-30T03:59:49.931Z,10.90
2019-04-30T04:02:35.135Z,10.80
2019-04-30T04:05:26.158Z,10.80
2019-04-30T04:08:14.144Z,10.90
2019-04-30T04:11:11.562Z,11.00
2019-04-30T04:13:40.368Z,11.00
2019-04-30T04:16:09.743Z,11.00
2019-04-30T04:18:40.257Z,10.90
2019-04-30T04:21:16.332Z,10.80
2019-04-30T04:23:40.066Z,10.90
2019-04-30T04:26:09.599Z,10.90
2019-04-30T04:28:43.107Z,10.90
2019-04-30T04:31:09.623Z,11.00
2019-04-30T04:33:39.606Z,11.00
2019-04-30T04:36:09.204Z,11.00
2019-04-30T04:38:40.381Z,11.10
2019-04-30T04:41:10.279Z,11.10
2019-04-30T04:43:40.156Z,11.10
2019-04-30T04:46:09.401Z,11.10
2019-04-30T04:48:39.471Z,11.10
2019-04-30T04:51:19.729Z,11.10
2019-04-30T04:53:40.221Z,11.10
2019-04-30T04:56:10.092Z,11.10
2019-04-30T04:58:40.207Z,11.20
2019-04-30T05:01:11.757Z,11.20
2019-04-30T05:03:40.382Z,11.20
2019-04-30T05:06:12.973Z,11.20
2019-04-30T05:08:41.861Z,11.20
2019-04-30T05:11:10.947Z,11.20
2019-04-30T05:13:39.804Z,11.20
2019-04-30T05:16:09.250Z,11.30
2019-04-30T05:18:39.131Z,11.30
2019-04-30T05:21:08.795Z,11.30
2019-04-30T05:23:41.138Z,11.30
2019-04-30T05:26:10.930Z,11.30
2019-04-30T05:28:39.481Z,11.40
2019-04-30T05:31:08.770Z,11.30
2019-04-30T05:33:39.035Z,11.30
2019-04-30T05:36:09.335Z,11.30
2019-04-30T05:38:39.183Z,11.30
2019-04-30T05:41:09.317Z,11.30
2019-04-30T05:43:38.856Z,11.40
2019-04-30T05:46:08.326Z,11.40
2019-04-30T05:48:39.717Z,11.40
2019-04-30T05:51:08.994Z,11.40
2019-04-30T05:53:39.413Z,11.50
2019-04-30T05:56:09.438Z,11.50
2019-04-30T05:58:39.732Z,11.50
2019-04-30T06:01:09.774Z,11.60
2019-04-30T06:03:38.897Z,11.50
2019-04-30T06:06:08.800Z,11.50
2019-04-30T06:08:45.396Z,11.30
2019-04-30T06:11:19.237Z,11.20
2019-04-30T06:14:18.590Z,11.40
2019-04-30T06:17:04.713Z,11.40
2019-04-30T06:19:33.760Z,11.40
2019-04-30T06:22:07.482Z,11.50
2019-04-30T06:24:33.272Z,11.50
2019-04-30T06:27:03.021Z,11.60
2019-04-30T06:29:32.804Z,11.50
2019-04-30T06:32:01.919Z,11.40
2019-04-30T06:34:31.533Z,11.30
2019-04-30T06:37:00.503Z,11.30
2019-04-30T06:39:29.378Z,11.40
2019-04-30T06:42:06.466Z,11.50
2019-04-30T06:44:37.436Z,11.60
2019-04-30T06:47:02.922Z,11.60
2019-04-30T06:49:32.537Z,11.70
2019-04-30T06:52:01.337Z,11.80
2019-04-30T06:54:30.208Z,11.80
2019-04-30T06:56:59.629Z,11.90
2019-04-30T06:59:29.957Z,11.80
2019-04-30T07:01:59.029Z,11.80
2019-04-30T07:04:29.314Z,11.70
2019-04-30T07:06:59.008Z,11.50
2019-04-30T07:09:55.810Z,11.50
2019-04-30T07:12:30.287Z,11.50
2019-04-30T07:14:59.190Z,11.40
2019-04-30T07:17:29.226Z,11.60
2019-04-30T07:19:59.683Z,11.70
2019-04-30T07:22:39.423Z,11.80
2019-04-30T07:24:59.647Z,11.80
2019-04-30T07:27:30.146Z,11.70
2019-04-30T07:29:59.599Z,11.70
2019-04-30T07:32:28.893Z,11.80
2019-04-30T07:34:59.449Z,11.80
2019-04-30T07:37:29.216Z,11.80
2019-04-30T07:39:58.877Z,11.70
2019-04-30T07:42:29.367Z,11.80
2019-04-30T07:45:00.620Z,11.80
2019-04-30T07:47:29.814Z,11.90
2019-04-30T07:50:00.646Z,11.90
2019-04-30T07:52:33.200Z,11.90
2019-04-30T07:55:00.717Z,11.90
2019-04-30T07:57:32.509Z,11.80
2019-04-30T08:00:00.768Z,11.80
2019-04-30T08:02:38.056Z,11.60
2019-04-30T08:05:10.495Z,11.70
2019-04-30T08:07:39.463Z,12.00
2019-04-30T08:10:09.504Z,12.10
2019-04-30T08:12:42.730Z,12.20
2019-04-30T08:15:09.651Z,12.20
2019-04-30T08:17:39.026Z,12.30
2019-04-30T08:20:08.729Z,12.30
2019-04-30T08:22:40.908Z,12.50
2019-04-30T08:25:09.733Z,12.70
2019-04-30T08:27:39.322Z,12.70
2019-04-30T08:30:20.766Z,12.50
2019-04-30T08:32:39.344Z,12.50
2019-04-30T08:35:09.901Z,12.60
2019-04-30T08:37:38.900Z,12.30
2019-04-30T08:40:08.673Z,12.50
2019-04-30T08:42:40.159Z,12.70
2019-04-30T08:45:09.788Z,12.70
2019-04-30T08:47:39.255Z,12.70
2019-04-30T08:50:09.766Z,12.50
2019-04-30T08:52:39.460Z,12.40
2019-04-30T08:55:15.575Z,12.30
2019-04-30T08:57:39.661Z,12.30
2019-04-30T09:00:11.612Z,12.50
2019-04-30T09:02:39.948Z,12.60
2019-04-30T09:05:16.127Z,12.50
2019-04-30T09:07:44.998Z,12.60
2019-04-30T09:10:14.641Z,12.60
2019-04-30T09:12:43.640Z,12.70
2019-04-30T09:15:12.493Z,12.90
2019-04-30T09:17:41.860Z,13.00
2019-04-30T09:20:10.986Z,13.10
2019-04-30T09:22:39.849Z,13.00
2019-04-30T09:25:09.336Z,13.10
2019-04-30T09:27:39.752Z,13.00
2019-04-30T09:30:10.390Z,13.10
2019-04-30T09:32:39.371Z,13.10
2019-04-30T09:35:09.538Z,13.20
2019-04-30T09:37:39.072Z,13.20
2019-04-30T09:40:17.670Z,13.30
2019-04-30T09:42:39.947Z,13.20
2019-04-30T09:45:08.863Z,13.10
2019-04-30T09:47:37.756Z,12.90
2019-04-30T09:50:09.129Z,12.80
2019-04-30T09:52:39.698Z,12.80
2019-04-30T09:55:09.602Z,12.90
2019-04-30T09:57:39.068Z,12.90
2019-04-30T10:00:09.429Z,13.10
2019-04-30T10:02:38.964Z,13.10
2019-04-30T10:05:08.729Z,13.20
2019-04-30T10:07:39.344Z,13.10
2019-04-30T10:10:11.920Z,13.10
2019-04-30T10:12:40.812Z,13.20
2019-04-30T10:15:12.296Z,13.30
2019-04-30T10:17:42.762Z,13.50
2019-04-30T10:20:13.768Z,13.70
2019-04-30T10:22:42.740Z,13.50
2019-04-30T10:25:12.089Z,13.80
2019-04-30T10:27:41.229Z,13.90
2019-04-30T10:30:11.185Z,13.80
2019-04-30T10:32:40.393Z,13.80
2019-04-30T10:35:09.417Z,13.60
2019-04-30T10:37:38.796Z,13.40
2019-04-30T10:40:10.305Z,13.40
2019-04-30T10:42:40.353Z,13.60
2019-04-30T10:45:09.961Z,13.50
2019-04-30T10:47:39.322Z,13.40
2019-04-30T10:50:09.967Z,13.50
2019-04-30T10:52:39.451Z,13.50
2019-04-30T10:55:09.384Z,13.40
2019-04-30T10:57:39.707Z,13.40
2019-04-30T11:00:13.504Z,13.20
2019-04-30T11:02:42.514Z,13.30
2019-04-30T11:05:12.736Z,13.50
2019-04-30T11:07:43.517Z,13.50
2019-04-30T11:10:12.580Z,13.40
2019-04-30T11:12:41.367Z,13.40
2019-04-30T11:15:10.517Z,13.40
2019-04-30T11:17:39.820Z,13.40
2019-04-30T11:20:10.273Z,13.20
2019-04-30T11:22:39.857Z,13.40
2019-04-30T11:25:10.048Z,13.50
2019-04-30T11:27:40.877Z,13.70
2019-04-30T11:30:20.253Z,13.90
2019-04-30T11:32:41.139Z,13.90
2019-04-30T11:35:10.376Z,13.80
2019-04-30T11:37:39.396Z,13.70
2019-04-30T11:40:09.101Z,13.80
2019-04-30T11:42:37.949Z,13.60
2019-04-30T11:45:08.608Z,14.00
2019-04-30T11:47:39.204Z,14.30
2019-04-30T11:50:13.621Z,14.40
2019-04-30T11:52:42.508Z,14.30
2019-04-30T11:55:11.720Z,14.40
2019-04-30T11:57:40.817Z,14.30
2019-04-30T12:00:13.377Z,14.40
2019-04-30T12:02:42.789Z,14.10
2019-04-30T12:05:14.361Z,14.40
2019-04-30T12:08:05.927Z,14.40
2019-04-30T12:10:42.532Z,14.70
2019-04-30T12:13:24.366Z,14.70
2019-04-30T12:15:53.817Z,14.60
2019-04-30T12:18:22.762Z,14.50
2019-04-30T12:20:51.811Z,14.50
2019-04-30T12:23:20.685Z,14.60
2019-04-30T12:25:49.581Z,14.30
2019-04-30T12:28:19.568Z,14.50
2019-04-30T12:30:49.064Z,14.60
2019-04-30T12:33:19.157Z,14.50
2019-04-30T12:35:51.168Z,14.60
2019-04-30T12:38:19.383Z,14.50
2019-04-30T12:40:48.280Z,14.30
2019-04-30T12:43:17.381Z,14.20
2019-04-30T12:45:46.181Z,14.50
2019-04-30T12:48:30.072Z,14.70
2019-04-30T12:51:10.206Z,14.60
2019-04-30T12:53:47.108Z,14.60
2019-04-30T12:56:37.852Z,14.70
2019-04-30T12:59:06.872Z,14.60
2019-04-30T13:01:35.822Z,14.50
2019-04-30T13:04:04.776Z,14.50
2019-04-30T13:06:34.522Z,14.70
2019-04-30T13:09:05.791Z,14.60
2019-04-30T13:11:40.082Z,14.70
2019-04-30T13:14:10.257Z,14.70
2019-04-30T13:16:39.304Z,14.70
2019-04-30T13:19:09.285Z,14.70
2019-04-30T13:21:39.504Z,14.70
2019-04-30T13:24:08.831Z,14.70
2019-04-30T13:26:39.638Z,14.50
2019-04-30T13:29:17.185Z,14.40
2019-04-30T13:31:46.053Z,14.40
2019-04-30T13:34:44.029Z,14.40
2019-04-30T13:37:13.022Z,14.40
2019-04-30T13:39:52.888Z,14.60
2019-04-30T13:42:29.409Z,14.60
2019-04-30T13:44:58.308Z,14.80
2019-04-30T13:47:29.153Z,14.80
2019-04-30T13:49:59.373Z,14.80
2019-04-30T13:52:28.858Z,14.70
2019-04-30T13:54:59.087Z,14.60
2019-04-30T13:57:27.933Z,14.60
2019-04-30T13:59:58.561Z,14.70
2019-04-30T14:02:29.616Z,14.80
2019-04-30T14:05:17.613Z,14.80
2019-04-30T14:07:59.816Z,15.00
2019-04-30T14:10:30.504Z,14.90
2019-04-30T14:13:00.853Z,14.90
2019-04-30T14:15:29.884Z,14.60
2019-04-30T14:17:59.704Z,14.50
2019-04-30T14:20:28.696Z,14.60
2019-04-30T14:22:57.679Z,14.50
2019-04-30T14:25:26.715Z,14.60
2019-04-30T14:27:55.548Z,14.40
2019-04-30T14:30:24.597Z,14.40
2019-04-30T14:32:53.744Z,14.60
2019-04-30T14:35:22.705Z,14.80
2019-04-30T14:37:51.494Z,14.70
2019-04-30T14:40:23.523Z,14.30
2019-04-30T14:43:00.045Z,14.00
2019-04-30T14:45:35.971Z,14.10
2019-04-30T14:48:25.306Z,14.40
2019-04-30T14:50:54.981Z,14.50
2019-04-30T14:53:35.050Z,14.50
2019-04-30T14:56:23.458Z,14.50
2019-04-30T14:59:09.003Z,14.50
2019-04-30T15:01:49.057Z,14.50
2019-04-30T15:04:20.341Z,14.40
2019-04-30T15:06:49.561Z,14.10
2019-04-30T15:09:18.784Z,14.20
2019-04-30T15:11:48.674Z,14.20
2019-04-30T15:14:18.106Z,14.00
2019-04-30T15:16:47.136Z,14.10
2019-04-30T15:19:16.004Z,14.00
2019-04-30T15:21:45.595Z,14.00
2019-04-30T15:24:33.453Z,14.00
2019-04-30T15:27:02.526Z,14.10
2019-04-30T15:29:31.668Z,14.10
2019-04-30T15:32:00.525Z,14.10
2019-04-30T15:34:29.623Z,14.20
2019-04-30T15:36:59.165Z,14.10
2019-04-30T15:39:39.404Z,14.10
2019-04-30T15:42:08.901Z,14.10
2019-04-30T15:44:45.336Z,14.00
2019-04-30T15:47:09.387Z,14.20
2019-04-30T15:49:38.320Z,14.20
2019-04-30T15:52:10.612Z,14.20
2019-04-30T15:54:39.229Z,14.20
2019-04-30T15:57:08.912Z,14.20
2019-04-30T15:59:42.115Z,14.10
2019-04-30T16:02:31.504Z,14.10
2019-04-30T16:05:25.558Z,14.20
2019-04-30T16:08:38.888Z,14.00
2019-04-30T16:11:32.804Z,13.90
2019-04-30T16:14:09.489Z,13.80
2019-04-30T16:16:40.341Z,13.90
2019-04-30T16:19:09.259Z,13.80
2019-04-30T16:21:38.070Z,13.80
2019-04-30T16:24:08.692Z,13.80
2019-04-30T16:26:48.614Z,13.90
2019-04-30T16:29:09.941Z,13.70
2019-04-30T16:31:39.228Z,13.50
2019-04-30T16:34:08.088Z,13.50
2019-04-30T16:36:38.900Z,13.70
2019-04-30T16:39:09.445Z,13.80
2019-04-30T16:41:40.515Z,13.90
2019-04-30T16:44:09.247Z,13.80
2019-04-30T16:46:39.535Z,13.70
2019-04-30T16:49:10.505Z,13.70
2019-04-30T16:52:22.445Z,13.60
2019-04-30T16:54:51.333Z,13.40
2019-04-30T16:57:20.120Z,13.40
2019-04-30T16:59:49.971Z,13.50
2019-04-30T17:02:21.335Z,13.40
2019-04-30T17:05:00.946Z,13.40
2019-04-30T17:07:53.265Z,13.20
2019-04-30T17:10:41.476Z,13.40
2019-04-30T17:13:25.089Z,13.40
2019-04-30T17:15:57.249Z,13.20
2019-04-30T17:18:31.664Z,13.20
2019-04-30T17:21:05.356Z,13.20
2019-04-30T17:23:37.862Z,13.20
2019-04-30T17:26:11.902Z,13.30
2019-04-30T17:28:45.199Z,13.20
2019-04-30T17:31:14.473Z,13.20
2019-04-30T17:33:43.314Z,13.10
2019-04-30T17:36:12.437Z,13.00
2019-04-30T17:38:41.473Z,13.00
2019-04-30T17:41:12.512Z,12.90
2019-04-30T17:43:41.696Z,12.90
2019-04-30T17:46:10.720Z,12.90
2019-04-30T17:48:39.508Z,12.90
2019-04-30T17:51:09.405Z,13.00
2019-04-30T17:53:58.758Z,13.00
2019-04-30T17:56:28.212Z,12.90
2019-04-30T17:58:56.981Z,12.80
2019-04-30T18:01:25.918Z,12.90
2019-04-30T18:03:54.896Z,12.90
2019-04-30T18:06:23.776Z,12.90
2019-04-30T18:08:54.484Z,12.90
2019-04-30T18:11:23.548Z,12.80
2019-04-30T18:13:52.358Z,12.70
2019-04-30T18:16:21.269Z,12.70
2019-04-30T18:18:55.915Z,12.70
2019-04-30T18:21:35.025Z,12.80
2019-04-30T18:24:22.021Z,12.80
2019-04-30T18:26:56.196Z,12.70
2019-04-30T18:29:25.252Z,12.50
2019-04-30T18:31:54.160Z,12.50
2019-04-30T18:34:22.990Z,12.60
2019-04-30T18:36:52.005Z,12.60
2019-04-30T18:39:21.588Z,12.60
2019-04-30T18:41:50.459Z,12.60
2019-04-30T18:44:20.618Z,12.60
2019-04-30T18:46:49.510Z,12.50
2019-04-30T18:49:18.815Z,12.50
2019-04-30T18:51:49.264Z,12.40
2019-04-30T18:54:20.731Z,12.40
2019-04-30T18:56:49.224Z,12.50
2019-04-30T18:59:19.644Z,12.10
2019-04-30T19:01:48.677Z,12.20
2019-04-30T19:04:18.951Z,12.10
2019-04-30T19:06:48.621Z,12.20
2019-04-30T19:09:36.264Z,12.30
2019-04-30T19:12:23.910Z,12.30
2019-04-30T19:15:41.019Z,12.20
2019-04-30T19:18:16.429Z,12.20
2019-04-30T19:20:49.592Z,12.20
2019-04-30T19:23:19.047Z,12.00
2019-04-30T19:25:48.566Z,12.00
2019-04-30T19:28:18.847Z,12.10
2019-04-30T19:30:55.781Z,12.10
2019-04-30T19:33:18.663Z,12.00
2019-04-30T19:35:50.352Z,12.00
2019-04-30T19:38:18.041Z,12.00
2019-04-30T19:40:46.948Z,11.90
2019-04-30T19:43:15.868Z,11.90
2019-04-30T19:45:44.676Z,11.90
2019-04-30T19:48:16.004Z,12.00
2019-04-30T19:50:44.100Z,12.00
2019-04-30T19:53:12.976Z,11.90
2019-04-30T19:55:41.960Z,11.90
2019-04-30T19:58:14.526Z,11.80
2019-04-30T20:00:41.403Z,11.80
2019-04-30T20:03:10.439Z,11.80
2019-04-30T20:05:39.521Z,11.80
2019-04-30T20:08:08.993Z,11.80
2019-04-30T20:10:39.863Z,11.80
2019-04-30T20:13:10.541Z,11.80
2019-04-30T20:15:39.476Z,11.80
2019-04-30T20:18:08.947Z,11.80
2019-04-30T20:20:39.897Z,11.90
2019-04-30T20:23:08.710Z,11.80
2019-04-30T20:25:37.667Z,11.80
2019-04-30T20:28:06.560Z,11.90
2019-04-30T20:30:35.376Z,11.80
2019-04-30T20:33:04.519Z,11.80
2019-04-30T20:35:33.518Z,11.70
2019-04-30T20:38:24.060Z,11.70
2019-04-30T20:41:00.212Z,11.70
2019-04-30T20:43:23.407Z,11.80
2019-04-30T20:45:52.616Z,11.80
2019-04-30T20:48:21.418Z,11.80
2019-04-30T20:50:50.520Z,11.90
2019-04-30T20:53:19.840Z,11.80
2019-04-30T20:55:49.530Z,11.70
2019-04-30T20:58:18.445Z,11.70
2019-04-30T21:01:00.294Z,11.60
2019-04-30T21:03:19.613Z,11.60
2019-04-30T21:05:48.691Z,11.60
2019-04-30T21:08:17.566Z,11.60
2019-04-30T21:10:46.384Z,11.50
2019-04-30T21:13:15.322Z,11.50
2019-04-30T21:15:44.097Z,11.60
2019-04-30T21:18:12.899Z,11.50
2019-04-30T21:20:42.013Z,11.50
2019-04-30T21:23:10.979Z,11.50
2019-04-30T21:25:39.765Z,11.50
2019-04-30T21:28:09.726Z,11.40
2019-04-30T21:30:38.717Z,11.30
2019-04-30T21:33:29.669Z,11.20
2019-04-30T21:36:19.799Z,11.10
2019-04-30T21:38:49.143Z,11.00
2019-04-30T21:41:19.535Z,10.90
2019-04-30T21:43:48.435Z,10.80
2019-04-30T21:46:19.119Z,10.80
2019-04-30T21:48:48.834Z,10.80
2019-04-30T21:51:19.248Z,10.70
2019-04-30T21:53:50.407Z,10.70
2019-04-30T21:56:19.429Z,10.60
2019-04-30T21:58:48.317Z,10.50
2019-04-30T22:01:25.718Z,10.50
2019-04-30T22:03:54.762Z,10.60
2019-04-30T22:06:23.542Z,10.60
2019-04-30T22:08:52.773Z,10.60
2019-04-30T22:11:21.823Z,10.50
2019-04-30T22:13:50.632Z,10.50
2019-04-30T22:16:20.425Z,10.50
2019-04-30T22:19:08.710Z,10.40
2019-04-30T22:21:39.539Z,10.50
2019-04-30T22:24:08.738Z,10.50
2019-04-30T22:26:37.573Z,10.50
2019-04-30T22:29:06.770Z,10.40
2019-04-30T22:31:35.981Z,10.30
2019-04-30T22:34:04.956Z,10.30
2019-04-30T22:36:38.996Z,10.20
2019-04-30T22:39:12.685Z,10.20
2019-04-30T22:41:41.698Z,10.20
2019-04-30T22:44:10.591Z,10.10
2019-04-30T22:46:39.490Z,10.10
2019-04-30T22:49:08.484Z,10.00
2019-04-30T22:51:37.465Z,10.00
2019-04-30T22:54:06.329Z,9.90
2019-04-30T22:56:35.493Z,9.80
2019-04-30T22:59:04.371Z,9.70
2019-04-30T23:01:54.228Z,9.70
2019-04-30T23:04:39.877Z,9.70
2019-04-30T23:07:08.825Z,9.70
2019-04-30T23:09:37.869Z,9.60
2019-04-30T23:12:07.077Z,9.60
2019-04-30T23:14:36.001Z,9.60
2019-04-30T23:17:05.713Z,9.60
2019-04-30T23:19:34.573Z,9.60
2019-04-30T23:22:03.776Z,9.50
2019-04-30T23:24:32.702Z,9.50
2019-04-30T23:27:01.460Z,9.60
2019-04-30T23:29:30.714Z,9.50
2019-04-30T23:31:59.575Z,9.50
2019-04-30T23:34:28.395Z,9.60
2019-04-30T23:36:57.308Z,9.60
2019-04-30T23:39:26.173Z,9.60
2019-04-30T23:41:54.949Z,9.60
2019-04-30T23:44:24.029Z,9.50
2019-04-30T23:46:52.849Z,9.50
2019-04-30T23:49:21.735Z,9.50
2019-04-30T23:51:50.787Z,9.50
2019-04-30T23:54:19.643Z,9.50
2019-04-30T23:56:48.517Z,9.40
2019-04-30T23:59:17.530Z,9.40
